Terminal Aerodrome Forecast
Issued by NWS Boise, ID

Home | Current Version | Previous Version | Text Only | Print | Product List | Glossary On
Versions: 1 2 3 4 5 6 7 8 9 10 11 12 13 14 15 16 17 18
000
FTUS45 KBOI 201125
TAFBNO
TAF
KBNO 201125Z 2012/2112 05007KT P6SM BKN100
      TEMPO 2012/2014 5SM -SN BR OVC025
     FM201800 19012KT P6SM -SHRA OVC050
     FM210000 20010KT P6SM BKN100
     FM210800 13008KT P6SM -RA OVC035=

USA.gov is the U.S. government's official web portal to all federal, state and local government web resources and services.